createdAt,value
2023-10-30T00:00:36.803Z,91.50
2023-10-30T00:03:04.789Z,91.50
2023-10-30T00:05:31.699Z,91.60
2023-10-30T00:07:58.549Z,91.60
2023-10-30T00:10:25.606Z,91.60
2023-10-30T00:12:52.931Z,91.70
2023-10-30T00:15:19.745Z,91.70
2023-10-30T00:17:46.611Z,91.70
2023-10-30T00:20:13.460Z,91.70
2023-10-30T00:22:40.254Z,91.70
2023-10-30T00:25:07.323Z,91.70
2023-10-30T00:27:34.163Z,91.80
2023-10-30T00:30:00.956Z,91.80
2023-10-30T00:32:27.741Z,92.10
2023-10-30T00:34:54.551Z,91.80
2023-10-30T00:37:21.329Z,91.80
2023-10-30T00:39:49.349Z,91.90
2023-10-30T00:42:16.381Z,91.90
2023-10-30T00:44:43.212Z,91.90
2023-10-30T00:47:09.971Z,91.90
2023-10-30T00:49:36.880Z,91.90
2023-10-30T00:52:03.995Z,92.00
2023-10-30T00:54:31.826Z,92.00
2023-10-30T00:56:58.652Z,92.00
2023-10-30T00:59:25.523Z,91.90
2023-10-30T01:01:52.312Z,91.90
2023-10-30T01:04:19.201Z,92.00
2023-10-30T01:06:46.178Z,92.00
2023-10-30T01:09:14.093Z,91.90
2023-10-30T01:11:41.036Z,92.00
2023-10-30T01:14:07.882Z,92.00
2023-10-30T01:16:34.653Z,92.00
2023-10-30T01:19:02.380Z,92.00
2023-10-30T01:21:29.207Z,92.00
2023-10-30T01:23:56.043Z,92.00
2023-10-30T01:26:25.960Z,92.00
2023-10-30T01:28:52.779Z,92.10
2023-10-30T01:31:19.591Z,92.00
2023-10-30T01:33:46.447Z,92.00
2023-10-30T01:36:14.262Z,92.00
2023-10-30T01:38:41.061Z,92.00
2023-10-30T01:41:07.878Z,92.10
2023-10-30T01:43:34.744Z,92.10
2023-10-30T01:46:01.704Z,92.10
2023-10-30T01:48:31.378Z,92.10
2023-10-30T01:51:00.558Z,92.10
2023-10-30T01:53:33.186Z,92.10
2023-10-30T01:56:02.394Z,92.20
2023-10-30T01:58:30.219Z,92.20
2023-10-30T02:00:58.541Z,92.30
2023-10-30T02:03:25.479Z,92.30
2023-10-30T02:05:53.185Z,92.30
2023-10-30T02:08:20.722Z,92.30
2023-10-30T02:10:47.521Z,92.30
2023-10-30T02:13:14.334Z,92.30
2023-10-30T02:15:41.246Z,92.40
2023-10-30T02:18:08.173Z,92.40
2023-10-30T02:20:35.529Z,92.40
2023-10-30T02:23:02.470Z,92.40
2023-10-30T02:25:31.604Z,92.40
2023-10-30T02:27:58.651Z,92.40
2023-10-30T02:30:27.494Z,92.40
2023-10-30T02:32:54.874Z,92.40
2023-10-30T02:35:21.999Z,92.40
2023-10-30T02:37:48.817Z,92.40
2023-10-30T02:40:15.742Z,92.40
2023-10-30T02:42:43.112Z,92.40
2023-10-30T02:45:10.746Z,92.40
2023-10-30T02:47:37.839Z,92.40
2023-10-30T02:50:08.029Z,92.50
2023-10-30T02:52:37.539Z,92.50
2023-10-30T02:55:07.854Z,92.50
2023-10-30T02:57:35.226Z,92.50
2023-10-30T03:00:02.110Z,92.50
2023-10-30T03:02:28.907Z,92.50
2023-10-30T03:04:55.781Z,92.50
2023-10-30T03:07:22.649Z,92.50
2023-10-30T03:09:50.598Z,92.60
2023-10-30T03:12:17.702Z,92.60
2023-10-30T03:14:44.631Z,92.60
2023-10-30T03:17:12.495Z,92.70
2023-10-30T03:19:39.284Z,92.70
2023-10-30T03:22:06.302Z,92.80
2023-10-30T03:24:33.178Z,92.80
2023-10-30T03:27:01.015Z,92.80
2023-10-30T03:29:27.826Z,92.90
2023-10-30T03:31:56.011Z,92.90
2023-10-30T03:34:23.310Z,92.90
2023-10-30T03:36:50.149Z,92.90
2023-10-30T03:39:17.063Z,92.90
2023-10-30T03:41:45.590Z,93.30
2023-10-30T03:44:13.033Z,93.00
2023-10-30T03:46:40.192Z,93.00
2023-10-30T03:49:07.488Z,93.00
2023-10-30T03:51:34.284Z,93.00
2023-10-30T03:54:02.175Z,93.00
2023-10-30T03:56:29.049Z,92.90
2023-10-30T03:58:55.858Z,92.90
2023-10-30T04:01:24.423Z,92.90
2023-10-30T04:03:53.028Z,92.90
2023-10-30T04:06:20.004Z,92.90
2023-10-30T04:08:46.927Z,92.90
2023-10-30T04:11:17.814Z,93.00
2023-10-30T04:13:45.856Z,92.90
2023-10-30T04:16:16.936Z,92.90
2023-10-30T04:18:43.956Z,92.90
2023-10-30T04:21:10.902Z,92.90
2023-10-30T04:23:39.301Z,92.90
2023-10-30T04:26:06.103Z,92.80
2023-10-30T04:28:32.897Z,92.90
2023-10-30T04:30:59.624Z,92.90
2023-10-30T04:33:26.394Z,92.90
2023-10-30T04:35:54.738Z,92.80
2023-10-30T04:38:24.406Z,92.80
2023-10-30T04:40:52.428Z,92.80
2023-10-30T04:43:19.200Z,92.80
2023-10-30T04:45:46.052Z,92.90
2023-10-30T04:48:12.888Z,92.80
2023-10-30T04:50:39.780Z,92.80
2023-10-30T04:53:06.560Z,92.90
2023-10-30T04:55:35.641Z,92.90
2023-10-30T04:58:02.493Z,92.90
2023-10-30T05:00:29.354Z,92.90
2023-10-30T05:02:56.187Z,92.90
2023-10-30T05:05:25.856Z,92.90
2023-10-30T05:07:52.746Z,92.90
2023-10-30T05:10:19.551Z,93.00
2023-10-30T05:12:46.318Z,93.00
2023-10-30T05:15:14.126Z,93.00
2023-10-30T05:17:41.066Z,93.00
2023-10-30T05:20:08.574Z,93.00
2023-10-30T05:22:35.411Z,93.00
2023-10-30T05:25:06.487Z,93.00
2023-10-30T05:27:33.730Z,93.00
2023-10-30T05:30:00.847Z,93.00
2023-10-30T05:32:27.986Z,93.00
2023-10-30T05:34:54.988Z,93.10
2023-10-30T05:37:22.245Z,93.10
2023-10-30T05:39:51.193Z,93.20
2023-10-30T05:42:18.395Z,93.20
2023-10-30T05:44:45.555Z,93.20
2023-10-30T05:47:12.827Z,93.30
2023-10-30T05:49:39.800Z,93.30
2023-10-30T05:52:10.818Z,93.30
2023-10-30T05:54:38.008Z,93.30
2023-10-30T05:57:04.907Z,93.40
2023-10-30T05:59:31.689Z,93.40
2023-10-30T06:01:58.639Z,93.50
2023-10-30T06:04:25.749Z,93.50
2023-10-30T06:06:54.561Z,93.50
2023-10-30T06:09:21.508Z,93.60
2023-10-30T06:11:49.431Z,93.60
2023-10-30T06:14:18.284Z,93.60
2023-10-30T06:16:45.328Z,93.60
2023-10-30T06:19:12.149Z,93.60
2023-10-30T06:21:44.654Z,93.60
2023-10-30T06:24:11.851Z,93.60
2023-10-30T06:26:42.301Z,93.60
2023-10-30T06:29:10.084Z,93.60
2023-10-30T06:31:38.011Z,93.60
2023-10-30T06:34:04.827Z,93.60
2023-10-30T06:36:31.964Z,93.60
2023-10-30T06:38:58.899Z,93.60
2023-10-30T06:41:25.648Z,93.60
2023-10-30T06:43:53.080Z,93.60
2023-10-30T06:46:20.064Z,93.60
2023-10-30T06:48:47.038Z,93.60
2023-10-30T06:51:13.960Z,93.60
2023-10-30T06:53:40.797Z,93.60
2023-10-30T06:56:09.063Z,93.50
2023-10-30T06:58:35.857Z,93.50
2023-10-30T07:01:04.315Z,93.50
2023-10-30T07:03:31.881Z,93.50
2023-10-30T07:05:58.784Z,93.60
2023-10-30T07:08:25.594Z,93.60
2023-10-30T07:10:52.867Z,93.50
2023-10-30T07:13:19.701Z,93.50
2023-10-30T07:15:46.537Z,93.50
2023-10-30T07:18:13.355Z,93.60
2023-10-30T07:20:40.133Z,93.60
2023-10-30T07:23:06.985Z,93.70
2023-10-30T07:25:33.796Z,93.70
2023-10-30T07:28:00.596Z,93.80
2023-10-30T07:30:28.147Z,93.80
2023-10-30T07:32:55.056Z,93.90
2023-10-30T07:35:21.893Z,93.90
2023-10-30T07:37:48.669Z,93.90
2023-10-30T07:40:15.576Z,94.00
2023-10-30T07:42:42.660Z,94.10
2023-10-30T07:45:09.836Z,94.10
2023-10-30T07:47:43.757Z,94.20
2023-10-30T07:50:11.781Z,94.30
2023-10-30T07:52:41.244Z,94.40
2023-10-30T07:55:09.869Z,94.80
2023-10-30T07:57:36.825Z,94.50
2023-10-30T08:00:05.092Z,94.60
2023-10-30T08:02:31.948Z,94.60
2023-10-30T08:05:00.648Z,94.70
2023-10-30T08:07:27.565Z,94.70
2023-10-30T08:09:56.346Z,94.80
2023-10-30T08:12:24.794Z,94.80
2023-10-30T08:14:53.356Z,94.90
2023-10-30T08:17:20.459Z,94.90
2023-10-30T08:19:48.434Z,94.90
2023-10-30T08:22:16.001Z,95.00
2023-10-30T08:24:42.995Z,95.00
2023-10-30T08:27:10.021Z,95.00
2023-10-30T08:29:36.967Z,95.00
2023-10-30T08:32:03.970Z,95.00
2023-10-30T08:34:31.899Z,95.10
2023-10-30T08:36:58.913Z,95.00
2023-10-30T08:39:28.830Z,95.00
2023-10-30T08:41:55.820Z,95.00
2023-10-30T08:44:25.433Z,95.00
2023-10-30T08:46:54.611Z,95.00
2023-10-30T08:49:21.620Z,95.00
2023-10-30T08:52:00.500Z,95.00
2023-10-30T08:54:30.353Z,95.00
2023-10-30T08:57:03.997Z,95.00
2023-10-30T08:59:39.360Z,94.90
2023-10-30T09:02:07.286Z,94.90
2023-10-30T09:04:35.204Z,94.90
2023-10-30T09:07:02.257Z,94.90
2023-10-30T09:09:29.149Z,94.80
2023-10-30T09:11:56.530Z,94.90
2023-10-30T09:14:26.168Z,94.80
2023-10-30T09:16:54.305Z,94.80
2023-10-30T09:19:21.363Z,94.80
2023-10-30T09:21:48.144Z,94.80
2023-10-30T09:24:14.968Z,94.70
2023-10-30T09:26:41.725Z,94.70
2023-10-30T09:29:08.652Z,94.70
2023-10-30T09:31:35.479Z,94.70
2023-10-30T09:34:02.364Z,94.70
2023-10-30T09:36:29.214Z,94.60
2023-10-30T09:38:56.277Z,94.60
2023-10-30T09:41:23.591Z,94.70
2023-10-30T09:43:50.757Z,94.60
2023-10-30T09:46:18.833Z,94.60
2023-10-30T09:48:46.201Z,94.70
2023-10-30T09:51:13.437Z,94.60
2023-10-30T09:53:40.742Z,94.60
2023-10-30T09:56:08.412Z,94.60
2023-10-30T09:58:37.257Z,94.60
2023-10-30T10:01:04.463Z,94.60
2023-10-30T10:03:31.571Z,94.60
2023-10-30T10:05:59.989Z,94.60
2023-10-30T10:08:27.873Z,94.60
2023-10-30T10:10:59.252Z,94.70
2023-10-30T10:13:27.302Z,94.70
2023-10-30T10:15:54.966Z,94.70
2023-10-30T10:18:29.444Z,94.70
2023-10-30T10:20:58.021Z,94.70
2023-10-30T10:23:25.632Z,94.60
2023-10-30T10:25:56.399Z,94.60
2023-10-30T10:28:24.716Z,94.60
2023-10-30T10:30:53.357Z,94.60
2023-10-30T10:33:24.646Z,94.50
2023-10-30T10:35:55.671Z,94.40
2023-10-30T10:38:23.898Z,94.30
2023-10-30T10:40:52.036Z,94.20
2023-10-30T10:43:24.370Z,94.20
2023-10-30T10:45:55.526Z,94.30
2023-10-30T10:48:24.882Z,94.20
2023-10-30T10:50:51.939Z,94.20
2023-10-30T10:53:22.685Z,94.30
2023-10-30T10:55:51.371Z,94.30
2023-10-30T10:58:32.352Z,94.30
2023-10-30T11:01:02.420Z,94.30
2023-10-30T11:03:29.643Z,94.30
2023-10-30T11:05:56.821Z,94.30
2023-10-30T11:08:50.826Z,94.40
2023-10-30T11:11:47.086Z,94.30
2023-10-30T11:14:53.376Z,94.30
2023-10-30T11:17:20.198Z,94.30
2023-10-30T11:19:48.076Z,94.20
2023-10-30T11:22:41.938Z,94.20
2023-10-30T11:25:45.402Z,94.10
2023-10-30T11:28:12.395Z,94.00
2023-10-30T11:30:46.294Z,94.10
2023-10-30T11:33:23.175Z,94.00
2023-10-30T11:36:15.721Z,93.90
2023-10-30T11:38:58.102Z,93.80
2023-10-30T11:41:29.696Z,93.90
2023-10-30T11:44:12.908Z,93.80
2023-10-30T11:46:48.247Z,93.70
2023-10-30T11:49:16.653Z,93.70
2023-10-30T11:51:46.342Z,93.70
2023-10-30T11:54:19.511Z,93.60
2023-10-30T11:56:49.645Z,93.60
2023-10-30T11:59:16.785Z,93.50
2023-10-30T12:01:45.724Z,93.50
2023-10-30T12:04:12.707Z,93.50
2023-10-30T12:06:41.485Z,93.40
2023-10-30T12:09:08.421Z,93.30
2023-10-30T12:11:35.269Z,93.20
2023-10-30T12:14:02.183Z,93.20
2023-10-30T12:16:30.824Z,93.30
2023-10-30T12:18:58.313Z,93.30
2023-10-30T12:21:25.348Z,93.20
2023-10-30T12:23:57.014Z,93.20
2023-10-30T12:26:24.000Z,93.20
2023-10-30T12:28:51.288Z,93.30
2023-10-30T12:31:24.038Z,93.20
2023-10-30T12:34:15.534Z,93.20
2023-10-30T12:36:42.408Z,93.10
2023-10-30T12:39:22.148Z,93.20
2023-10-30T12:41:53.344Z,93.10
2023-10-30T12:44:20.272Z,93.20
2023-10-30T12:46:47.726Z,93.20
2023-10-30T12:49:14.842Z,93.20
2023-10-30T12:51:41.804Z,93.30
2023-10-30T12:54:10.034Z,93.20
2023-10-30T12:56:36.893Z,93.30
2023-10-30T12:59:03.795Z,93.40
2023-10-30T13:01:30.869Z,93.40
2023-10-30T13:03:58.932Z,93.50
2023-10-30T13:06:25.828Z,93.50
2023-10-30T13:08:52.624Z,93.50
2023-10-30T13:11:19.526Z,93.50
2023-10-30T13:13:46.497Z,93.50
2023-10-30T13:16:13.316Z,93.60
2023-10-30T13:18:40.228Z,93.50
2023-10-30T13:21:07.004Z,93.50
2023-10-30T13:23:33.865Z,93.50
2023-10-30T13:26:00.711Z,93.50
2023-10-30T13:28:27.933Z,93.50
2023-10-30T13:30:54.875Z,93.50
2023-10-30T13:33:21.895Z,93.90
2023-10-30T13:35:49.595Z,93.60
2023-10-30T13:38:16.448Z,93.60
2023-10-30T13:40:43.387Z,93.60
2023-10-30T13:43:10.283Z,93.60
2023-10-30T13:45:37.155Z,93.60
2023-10-30T13:48:04.270Z,93.60
2023-10-30T13:50:31.564Z,93.70
2023-10-30T13:52:58.339Z,93.70
2023-10-30T13:55:25.124Z,93.70
2023-10-30T13:57:52.284Z,93.70
2023-10-30T14:00:19.583Z,93.70
2023-10-30T14:02:46.618Z,93.70
2023-10-30T14:05:13.551Z,93.70
2023-10-30T14:07:40.345Z,93.70
2023-10-30T14:10:07.728Z,93.70
2023-10-30T14:12:34.733Z,93.70
2023-10-30T14:15:02.899Z,93.70
2023-10-30T14:17:29.823Z,93.70
2023-10-30T14:19:56.619Z,93.70
2023-10-30T14:22:23.371Z,93.70
2023-10-30T14:24:50.385Z,93.70
2023-10-30T14:27:19.280Z,93.80
2023-10-30T14:29:47.312Z,93.80
2023-10-30T14:32:14.105Z,93.80
2023-10-30T14:34:40.912Z,93.80
2023-10-30T14:37:08.040Z,93.80
2023-10-30T14:39:35.927Z,93.80
2023-10-30T14:42:02.896Z,93.90
2023-10-30T14:44:29.787Z,93.90
2023-10-30T14:46:56.630Z,93.80
2023-10-30T14:49:23.389Z,94.20
2023-10-30T14:51:50.179Z,93.80
2023-10-30T14:54:16.938Z,93.80
2023-10-30T14:56:43.723Z,93.80
2023-10-30T14:59:10.524Z,93.90
2023-10-30T15:01:37.943Z,93.90
2023-10-30T15:04:05.119Z,93.90
2023-10-30T15:06:32.406Z,93.90
2023-10-30T15:09:00.627Z,93.90
2023-10-30T15:11:28.751Z,93.90
2023-10-30T15:13:57.041Z,93.90
2023-10-30T15:16:23.901Z,93.90
2023-10-30T15:18:50.830Z,94.00
2023-10-30T15:21:17.803Z,94.00
2023-10-30T15:23:44.849Z,93.90
2023-10-30T15:26:11.690Z,93.90
2023-10-30T15:28:38.552Z,93.90
2023-10-30T15:31:05.436Z,94.00
2023-10-30T15:33:33.249Z,94.00
2023-10-30T15:36:00.769Z,94.00
2023-10-30T15:38:30.593Z,94.00
2023-10-30T15:40:57.356Z,94.00
2023-10-30T15:43:24.175Z,94.00
2023-10-30T15:45:51.316Z,94.00
2023-10-30T15:48:18.328Z,94.00
2023-10-30T15:50:46.728Z,94.00
2023-10-30T16:00:50.561Z,94.10
2023-10-30T16:06:05.218Z,94.10
2023-10-30T16:16:02.415Z,94.20
2023-10-30T16:18:31.108Z,94.20
2023-10-30T16:21:15.840Z,94.30
2023-10-30T16:23:43.724Z,94.30
2023-10-30T16:26:10.512Z,94.30
2023-10-30T16:28:37.346Z,94.30
2023-10-30T16:31:04.415Z,94.30
2023-10-30T16:33:32.289Z,94.30
2023-10-30T16:35:59.178Z,94.30
2023-10-30T16:38:26.341Z,94.30
2023-10-30T16:40:53.113Z,94.30
2023-10-30T16:43:21.655Z,94.40
2023-10-30T16:45:48.444Z,94.40
2023-10-30T16:48:15.278Z,94.40
2023-10-30T16:50:42.768Z,94.40
2023-10-30T16:53:09.678Z,94.40
2023-10-30T16:55:36.414Z,94.50
2023-10-30T16:58:03.258Z,94.50
2023-10-30T17:00:30.262Z,94.50
2023-10-30T17:02:57.154Z,94.50
2023-10-30T17:05:24.005Z,94.50
2023-10-30T17:07:50.762Z,94.50
2023-10-30T17:10:17.717Z,94.50
2023-10-30T17:12:44.566Z,94.60
2023-10-30T17:15:14.632Z,94.60
2023-10-30T17:17:41.657Z,94.60
2023-10-30T17:20:08.979Z,94.70
2023-10-30T17:22:35.755Z,94.60
2023-10-30T17:25:02.532Z,94.60
2023-10-30T17:27:29.534Z,94.70
2023-10-30T17:29:56.341Z,94.70
2023-10-30T17:32:23.132Z,94.70
2023-10-30T17:34:51.206Z,94.70
2023-10-30T17:37:20.716Z,94.80
2023-10-30T17:39:47.859Z,94.80
2023-10-30T17:42:14.865Z,94.80
2023-10-30T17:44:41.778Z,94.80
2023-10-30T17:47:08.657Z,94.80
2023-10-30T17:49:37.041Z,94.80
2023-10-30T17:52:04.372Z,94.80
2023-10-30T17:54:34.101Z,94.80
2023-10-30T17:57:02.445Z,94.90
2023-10-30T17:59:29.480Z,94.90
2023-10-30T18:01:56.853Z,94.90
2023-10-30T18:04:23.976Z,94.90
2023-10-30T18:06:50.855Z,94.90
2023-10-30T18:09:17.670Z,95.00
2023-10-30T18:11:44.488Z,95.00
2023-10-30T18:14:14.657Z,95.00
2023-10-30T18:16:43.271Z,95.10
2023-10-30T18:19:10.170Z,95.10
2023-10-30T18:21:37.084Z,95.10
2023-10-30T18:24:04.074Z,95.10
2023-10-30T18:26:30.841Z,95.10
2023-10-30T18:29:06.786Z,95.10
2023-10-30T18:31:39.991Z,95.10
2023-10-30T18:34:07.073Z,95.20
2023-10-30T18:36:33.855Z,95.20
2023-10-30T18:39:01.775Z,95.30
2023-10-30T18:41:32.713Z,95.30
2023-10-30T18:43:59.554Z,95.40
2023-10-30T18:46:26.959Z,95.40
2023-10-30T18:48:53.889Z,95.40
2023-10-30T18:51:20.906Z,95.50
2023-10-30T18:53:47.899Z,95.50
2023-10-30T18:56:14.840Z,95.60
2023-10-30T18:58:42.003Z,95.60
2023-10-30T19:01:10.020Z,95.60
2023-10-30T19:03:37.008Z,95.70
2023-10-30T19:06:04.427Z,95.70
2023-10-30T19:08:34.896Z,95.70
2023-10-30T19:11:02.882Z,95.70
2023-10-30T19:13:32.774Z,95.70
2023-10-30T19:16:02.816Z,95.70
2023-10-30T19:18:29.859Z,95.70
2023-10-30T19:20:58.468Z,95.60
2023-10-30T19:23:25.863Z,95.70
2023-10-30T19:25:52.778Z,95.70
2023-10-30T19:28:19.719Z,95.70
2023-10-30T19:30:46.628Z,95.70
2023-10-30T19:33:13.480Z,95.70
2023-10-30T19:35:40.310Z,95.70
2023-10-30T19:38:09.246Z,95.70
2023-10-30T19:40:37.196Z,95.70
2023-10-30T19:43:04.435Z,95.70
2023-10-30T19:45:32.218Z,95.80
2023-10-30T19:48:00.631Z,95.80
2023-10-30T19:50:27.459Z,95.80
2023-10-30T19:52:54.327Z,95.70
2023-10-30T19:55:21.236Z,95.80
2023-10-30T19:57:49.170Z,95.80
2023-10-30T20:00:20.929Z,95.80
2023-10-30T20:02:47.900Z,95.80
2023-10-30T20:05:14.906Z,95.80
2023-10-30T20:07:42.631Z,95.80
2023-10-30T20:10:22.011Z,95.80
2023-10-30T20:12:57.101Z,95.80
2023-10-30T20:15:24.493Z,95.80
2023-10-30T20:17:51.419Z,95.90
2023-10-30T20:20:18.293Z,95.90
2023-10-30T20:22:45.252Z,95.90
2023-10-30T20:25:12.657Z,96.00
2023-10-30T20:27:39.490Z,96.00
2023-10-30T20:30:06.849Z,96.00
2023-10-30T20:32:33.692Z,96.00
2023-10-30T20:35:00.628Z,96.10
2023-10-30T20:37:27.512Z,96.00
2023-10-30T20:39:54.358Z,96.10
2023-10-30T20:42:21.157Z,96.10
2023-10-30T20:44:48.015Z,96.10
2023-10-30T20:47:14.789Z,96.00
2023-10-30T20:49:49.990Z,96.10
2023-10-30T20:52:16.968Z,96.00
2023-10-30T20:54:43.855Z,96.00
2023-10-30T20:57:10.770Z,96.00
2023-10-30T20:59:37.519Z,96.00
2023-10-30T21:02:04.547Z,96.10
2023-10-30T21:04:31.802Z,96.00
2023-10-30T21:06:58.694Z,96.10
2023-10-30T21:09:25.516Z,96.10
2023-10-30T21:11:52.253Z,96.50
2023-10-30T21:14:20.323Z,96.20
2023-10-30T21:16:49.853Z,96.20
2023-10-30T21:19:16.717Z,96.20
2023-10-30T21:21:43.501Z,96.20
2023-10-30T21:24:11.747Z,96.20
2023-10-30T21:26:38.545Z,96.20
2023-10-30T21:29:05.533Z,96.20
2023-10-30T21:31:33.581Z,96.20
2023-10-30T21:34:00.668Z,96.20
2023-10-30T21:36:27.489Z,96.20
2023-10-30T21:38:56.930Z,96.20
2023-10-30T21:41:23.800Z,96.20
2023-10-30T21:43:51.915Z,96.30
2023-10-30T21:46:19.050Z,96.30
2023-10-30T21:48:46.118Z,96.30
2023-10-30T21:51:12.991Z,96.30
2023-10-30T21:53:39.758Z,96.30
2023-10-30T21:56:06.836Z,96.20
2023-10-30T21:58:33.694Z,96.20
2023-10-30T22:01:00.585Z,96.10
2023-10-30T22:03:27.523Z,96.10
2023-10-30T22:05:54.318Z,96.10
2023-10-30T22:08:21.151Z,96.10
2023-10-30T22:10:47.920Z,96.10
2023-10-30T22:13:15.758Z,96.10
2023-10-30T22:15:43.825Z,96.10
2023-10-30T22:18:10.716Z,96.10
2023-10-30T22:20:37.734Z,96.10
2023-10-30T22:23:04.706Z,96.10
2023-10-30T22:25:31.977Z,96.10
2023-10-30T22:27:58.960Z,96.20
2023-10-30T22:30:25.936Z,96.20
2023-10-30T22:32:53.151Z,96.60
2023-10-30T22:35:19.966Z,96.30
2023-10-30T22:37:46.780Z,96.40
2023-10-30T22:40:13.909Z,96.40
2023-10-30T22:42:40.921Z,96.40
2023-10-30T22:45:09.463Z,96.50
2023-10-30T22:47:36.330Z,96.50
2023-10-30T22:50:03.236Z,96.50
2023-10-30T22:52:31.891Z,96.50
2023-10-30T22:55:01.029Z,96.50
2023-10-30T22:57:28.619Z,96.50
2023-10-30T22:59:56.417Z,96.50
2023-10-30T23:02:23.248Z,96.50
2023-10-30T23:04:50.159Z,96.60
2023-10-30T23:07:17.580Z,96.60
2023-10-30T23:09:44.436Z,96.60
2023-10-30T23:12:11.273Z,96.60
2023-10-30T23:14:38.547Z,96.60
2023-10-30T23:17:05.522Z,96.60
2023-10-30T23:19:35.161Z,96.70
2023-10-30T23:22:02.179Z,96.60
2023-10-30T23:24:29.008Z,96.60
2023-10-30T23:26:55.838Z,96.70
2023-10-30T23:29:22.802Z,96.70
2023-10-30T23:31:49.981Z,96.70
2023-10-30T23:34:16.798Z,96.70
2023-10-30T23:36:43.584Z,96.80
2023-10-30T23:39:10.319Z,97.10
2023-10-30T23:41:37.027Z,96.70
2023-10-30T23:44:03.902Z,96.70
2023-10-30T23:46:35.905Z,96.80
2023-10-30T23:49:08.045Z,96.80
2023-10-30T23:51:34.815Z,96.80
2023-10-30T23:54:01.604Z,97.10
2023-10-30T23:56:28.391Z,96.90
2023-10-30T23:58:56.260Z,96.90
